Norup, Denmark
Current Conditions -  °F | °C
As of 7:50 AM on Tuesday 21 Oct 2014 (Local Time) from EKBI Reporting Station
Broken Clouds Broken Clouds  
Wind Chill: 50°   Ceiling: 300
Heat Index: 50°   Visibility: 3mi
Dew Point: 50°   Wind: 7mph
Humidity: 100%   Direction: 160°SSE
Pressure: 29.59"   Gusts: NA
Location:  55.72°N, 9.32°E
Report Text: EKBI 210550Z AUTO 16006KT 5000NDV BKN003/// 10/10 Q1002
Loading
Personal Weather Stations






























Interactive Weather Map
Tropical Storm Tracking
New forecast layout! Learn more

10-Day Weather Forecast

Advertisements
Track Severe Weather on mobile